Time;durP1;ratioP1;P1;durP2;ratioP2;P2;SDS_P1;SDS_P2;PMS_P1;PMS_P2;Temp;Humidity;BMP_temperature;BMP_pressure;BME280_temperature;BME280_humidity;BME280_pressure;Samples;Min_cycle;Max_cycle;Signal;HPM_P1;HPM_P2
2022/10/22 00:00:59;;;;;;;10.65;5.72;;;;;;;;;;5072572;28;20044;-67
2022/10/22 00:03:25;;;;;;;11.40;6.53;;;;;;;;;;5072772;28;20068;-67
2022/10/22 00:05:51;;;;;;;9.30;5.50;;;;;;;;;;5070825;28;20044;-67
2022/10/22 00:08:18;;;;;;;14.20;5.95;;;;;;;;;;5072730;28;20037;-67
2022/10/22 00:10:44;;;;;;;13.73;5.88;;;;;;;;;;5072200;28;20037;-67
2022/10/22 00:13:10;;;;;;;18.42;6.25;;;;;;;;;;5071702;28;20106;-67
2022/10/22 00:15:36;;;;;;;12.98;5.57;;;;;;;;;;5072445;28;20097;-67
2022/10/22 00:18:02;;;;;;;9.90;5.57;;;;;;;;;;5072517;28;20048;-67
2022/10/22 00:20:28;;;;;;;9.55;5.68;;;;;;;;;;5070277;28;20111;-67
2022/10/22 00:22:54;;;;;;;10.65;5.75;;;;;;;;;;5070763;28;20123;-67
2022/10/22 00:25:20;;;;;;;13.27;6.07;;;;;;;;;;5072055;28;20045;-67
2022/10/22 00:27:46;;;;;;;10.48;6.15;;;;;;;;;;5071500;28;20044;-67
2022/10/22 00:30:12;;;;;;;11.40;6.00;;;;;;;;;;5072161;28;20569;-67
2022/10/22 00:32:38;;;;;;;13.82;6.43;;;;;;;;;;5072200;28;20430;-67
2022/10/22 00:35:05;;;;;;;10.75;6.70;;;;;;;;;;5071177;28;20032;-67
2022/10/22 00:37:31;;;;;;;12.32;6.60;;;;;;;;;;5071995;28;20078;-67
2022/10/22 00:39:57;;;;;;;12.40;6.65;;;;;;;;;;5071847;28;20047;-67
2022/10/22 00:42:24;;;;;;;12.20;6.35;;;;;;;;;;5071595;28;20135;-67
2022/10/22 00:45:09;;;;;;;12.93;6.55;;;;;;;;;;5070278;28;20071;-67
2022/10/22 00:47:36;;;;;;;12.13;6.80;;;;;;;;;;5071755;28;20032;-67
2022/10/22 00:50:08;;;;;;;9.40;6.05;;;;;;;;;;5069957;28;20048;-67
2022/10/22 00:52:35;;;;;;;13.32;6.70;;;;;;;;;;5071832;28;20123;-67
2022/10/22 00:55:01;;;;;;;15.95;6.57;;;;;;;;;;5071685;28;20040;-67
2022/10/22 00:57:27;;;;;;;16.33;6.72;;;;;;;;;;5071295;28;20044;-67
2022/10/22 00:59:55;;;;;;;11.88;6.35;;;;;;;;;;5071493;28;20036;-67
2022/10/22 01:02:21;;;;;;;14.90;6.78;;;;;;;;;;5069848;28;20384;-67
2022/10/22 01:04:47;;;;;;;9.63;5.80;;;;;;;;;;5070975;28;20433;-67
2022/10/22 01:07:16;;;;;;;10.23;6.00;;;;;;;;;;5070695;28;20090;-67
2022/10/22 01:09:45;;;;;;;13.95;6.57;;;;;;;;;;5069636;28;20153;-67
2022/10/22 01:12:32;;;;;;;12.77;6.40;;;;;;;;;;5070555;28;20091;-67
2022/10/22 01:15:01;;;;;;;20.35;6.60;;;;;;;;;;5071213;28;20059;-67
2022/10/22 01:17:32;;;;;;;8.98;5.53;;;;;;;;;;5071262;28;20127;-67
2022/10/22 01:20:04;;;;;;;8.43;6.18;;;;;;;;;;5070722;28;20048;-67
2022/10/22 01:22:34;;;;;;;12.80;6.65;;;;;;;;;;5069549;28;20079;-67
2022/10/22 01:25:05;;;;;;;14.88;6.43;;;;;;;;;;5069711;28;20044;-67
2022/10/22 01:27:38;;;;;;;11.33;6.27;;;;;;;;;;5050665;28;20120;-67
2022/10/22 01:30:08;;;;;;;12.48;6.95;;;;;;;;;;5049449;28;20341;-67
2022/10/22 01:32:39;;;;;;;11.77;7.13;;;;;;;;;;5049826;28;20064;-67
2022/10/22 01:35:10;;;;;;;14.82;7.40;;;;;;;;;;5050631;28;20045;-67
2022/10/22 01:37:39;;;;;;;10.75;6.60;;;;;;;;;;5049427;28;20098;-67
2022/10/22 01:40:05;;;;;;;15.18;7.32;;;;;;;;;;5050754;28;20434;-67
2022/10/22 01:42:31;;;;;;;12.70;6.78;;;;;;;;;;5050101;28;20094;-67
2022/10/22 01:44:57;;;;;;;10.48;7.10;;;;;;;;;;5049355;28;20055;-67
2022/10/22 01:47:39;;;;;;;17.98;7.18;;;;;;;;;;5050798;28;20029;-67
2022/10/22 01:50:23;;;;;;;21.38;7.65;;;;;;;;;;5048773;28;20575;-67
2022/10/22 01:52:49;;;;;;;16.08;7.65;;;;;;;;;;5050797;28;20044;-67
2022/10/22 01:55:27;;;;;;;12.77;7.63;;;;;;;;;;5048875;28;20119;-67
2022/10/22 01:58:08;;;;;;;10.95;7.30;;;;;;;;;;5050261;28;20211;-67
2022/10/22 02:00:38;;;;;;;11.70;7.45;;;;;;;;;;5050491;28;20037;-67
2022/10/22 02:03:03;;;;;;;11.63;7.75;;;;;;;;;;5050714;28;20467;-67
2022/10/22 02:05:35;;;;;;;13.35;8.25;;;;;;;;;;5052834;28;20056;-67
2022/10/22 02:08:12;;;;;;;12.27;7.55;;;;;;;;;;5070644;28;20033;-67
2022/10/22 02:10:39;;;;;;;14.85;7.47;;;;;;;;;;5070247;28;20037;-67
2022/10/22 02:13:09;;;;;;;17.88;8.63;;;;;;;;;;5070360;28;20102;-67
2022/10/22 02:15:36;;;;;;;12.70;7.32;;;;;;;;;;5070370;28;20040;-67
2022/10/22 02:18:02;;;;;;;12.55;7.68;;;;;;;;;;5070635;28;20083;-67
2022/10/22 02:20:30;;;;;;;23.60;7.93;;;;;;;;;;5074540;28;20040;-67
2022/10/22 02:22:56;;;;;;;14.60;7.50;;;;;;;;;;5074658;28;20044;-67
2022/10/22 02:25:24;;;;;;;14.20;8.13;;;;;;;;;;5072539;28;20068;-67
2022/10/22 02:28:05;;;;;;;16.77;8.02;;;;;;;;;;5073056;28;20536;-67
2022/10/22 02:30:32;;;;;;;16.58;8.70;;;;;;;;;;5073057;28;20040;-67
2022/10/22 02:32:58;;;;;;;17.00;7.95;;;;;;;;;;5073790;28;20097;-67
2022/10/22 02:35:25;;;;;;;14.25;8.40;;;;;;;;;;5072790;28;20049;-67
2022/10/22 02:37:52;;;;;;;16.48;7.80;;;;;;;;;;5074213;28;20463;-67
2022/10/22 02:40:19;;;;;;;14.18;8.13;;;;;;;;;;5072419;28;20048;-67
2022/10/22 02:42:46;;;;;;;13.63;7.80;;;;;;;;;;5074108;28;20044;-67
2022/10/22 02:45:12;;;;;;;14.18;7.70;;;;;;;;;;5074193;28;20032;-67
2022/10/22 02:47:38;;;;;;;18.40;7.90;;;;;;;;;;5073667;28;20037;-67
2022/10/22 02:50:04;;;;;;;13.65;8.82;;;;;;;;;;5073828;28;20044;-67
2022/10/22 02:52:30;;;;;;;10.98;8.77;;;;;;;;;;5073884;28;20494;-67
2022/10/22 02:54:56;;;;;;;18.48;8.60;;;;;;;;;;5073929;28;20097;-67
2022/10/22 02:57:22;;;;;;;15.32;8.15;;;;;;;;;;5072428;28;20149;-67
2022/10/22 02:59:48;;;;;;;16.00;8.32;;;;;;;;;;5073886;28;20032;-67
2022/10/22 03:02:15;;;;;;;16.58;8.93;;;;;;;;;;5073704;28;20124;-67
2022/10/22 03:04:41;;;;;;;14.30;9.05;;;;;;;;;;5072020;28;20048;-67
2022/10/22 03:07:07;;;;;;;12.30;8.10;;;;;;;;;;5073536;28;20077;-67
2022/10/22 03:09:33;;;;;;;17.70;8.73;;;;;;;;;;5072186;28;20498;-67
2022/10/22 03:11:59;;;;;;;14.07;8.52;;;;;;;;;;5072456;28;20574;-67
2022/10/22 03:14:25;;;;;;;14.95;9.10;;;;;;;;;;5070693;28;20214;-67
2022/10/22 03:16:51;;;;;;;11.68;8.50;;;;;;;;;;5070777;28;20037;-67
2022/10/22 03:19:17;;;;;;;16.40;8.80;;;;;;;;;;5070529;28;20059;-67
2022/10/22 03:21:53;;;;;;;15.25;8.10;;;;;;;;;;5072035;28;20046;-67
2022/10/22 03:24:21;;;;;;;16.20;8.38;;;;;;;;;;5070665;28;20097;-67
2022/10/22 03:26:50;;;;;;;11.75;8.30;;;;;;;;;;5071488;28;20037;-67
2022/10/22 03:29:16;;;;;;;14.50;8.50;;;;;;;;;;5071470;28;20045;-67
2022/10/22 03:31:42;;;;;;;20.48;9.15;;;;;;;;;;5071933;28;20048;-67
2022/10/22 03:34:10;;;;;;;16.17;9.40;;;;;;;;;;5071852;28;20043;-67
2022/10/22 03:36:37;;;;;;;19.90;9.90;;;;;;;;;;5070452;28;20051;-67
2022/10/22 03:39:04;;;;;;;13.75;8.77;;;;;;;;;;5070687;28;20150;-67
2022/10/22 03:41:30;;;;;;;14.05;9.70;;;;;;;;;;5071275;28;20054;-67
2022/10/22 03:43:56;;;;;;;18.08;9.20;;;;;;;;;;5071970;28;20024;-67
2022/10/22 03:46:22;;;;;;;19.20;10.15;;;;;;;;;;5071704;28;20044;-67
2022/10/22 03:48:48;;;;;;;18.52;10.57;;;;;;;;;;5069861;28;20407;-67
2022/10/22 03:51:14;;;;;;;14.38;9.43;;;;;;;;;;5071446;28;20041;-67
2022/10/22 03:53:40;;;;;;;16.60;10.48;;;;;;;;;;5070432;28;20398;-67
2022/10/22 03:56:10;;;;;;;20.27;10.77;;;;;;;;;;5071120;28;20127;-67
2022/10/22 03:58:36;;;;;;;17.92;10.50;;;;;;;;;;5071708;28;20101;-67
2022/10/22 04:01:07;;;;;;;16.45;10.60;;;;;;;;;;5071617;28;20041;-67
2022/10/22 04:03:33;;;;;;;14.85;10.27;;;;;;;;;;5069993;28;20130;-67
2022/10/22 04:06:03;;;;;;;16.40;9.85;;;;;;;;;;5069857;28;20064;-67
2022/10/22 04:08:29;;;;;;;22.38;10.75;;;;;;;;;;5071558;28;20453;-67
2022/10/22 04:10:55;;;;;;;16.95;10.40;;;;;;;;;;5066554;28;122844;-67
2022/10/22 04:13:21;;;;;;;21.33;10.82;;;;;;;;;;5071293;28;20045;-67
2022/10/22 04:15:47;;;;;;;16.55;10.77;;;;;;;;;;5072150;28;20113;-67
2022/10/22 04:18:13;;;;;;;18.70;10.23;;;;;;;;;;5070541;28;20052;-67
2022/10/22 04:20:41;;;;;;;21.88;11.20;;;;;;;;;;5071828;28;20086;-67
2022/10/22 04:23:07;;;;;;;17.23;10.95;;;;;;;;;;5072128;28;20073;-67
2022/10/22 04:25:33;;;;;;;16.40;10.82;;;;;;;;;;5071623;28;20082;-67
2022/10/22 04:27:59;;;;;;;20.88;11.80;;;;;;;;;;5072205;28;20083;-67
2022/10/22 04:30:25;;;;;;;18.02;11.65;;;;;;;;;;5072061;28;20040;-67
2022/10/22 04:32:51;;;;;;;16.90;11.05;;;;;;;;;;5070493;28;20036;-67
2022/10/22 04:35:17;;;;;;;16.17;11.80;;;;;;;;;;5070827;28;20068;-67
2022/10/22 04:37:43;;;;;;;15.73;11.55;;;;;;;;;;5071891;28;20037;-67
2022/10/22 04:40:09;;;;;;;16.92;11.85;;;;;;;;;;5071462;28;20040;-67
2022/10/22 04:42:35;;;;;;;19.00;11.35;;;;;;;;;;5069860;28;20072;-67
2022/10/22 04:45:02;;;;;;;20.90;11.18;;;;;;;;;;5071930;28;20048;-67
2022/10/22 04:47:28;;;;;;;20.55;11.63;;;;;;;;;;5070205;28;20138;-67
2022/10/22 04:49:54;;;;;;;23.60;11.48;;;;;;;;;;5071660;28;20044;-67
2022/10/22 04:52:20;;;;;;;17.17;10.93;;;;;;;;;;5071797;28;20052;-67
2022/10/22 04:54:46;;;;;;;15.13;11.50;;;;;;;;;;5070966;28;20084;-67
2022/10/22 04:57:13;;;;;;;21.27;11.32;;;;;;;;;;5071699;28;20036;-67
2022/10/22 04:59:39;;;;;;;21.67;11.38;;;;;;;;;;5069980;28;20426;-67
2022/10/22 05:02:05;;;;;;;18.50;11.48;;;;;;;;;;5071150;28;20087;-67
2022/10/22 05:04:31;;;;;;;18.52;10.60;;;;;;;;;;5069899;28;20136;-67
2022/10/22 05:06:57;;;;;;;20.95;11.95;;;;;;;;;;5071211;28;20089;-67
2022/10/22 05:09:23;;;;;;;22.70;11.88;;;;;;;;;;5070875;28;20375;-67
2022/10/22 05:11:50;;;;;;;21.52;10.68;;;;;;;;;;5071056;28;20129;-67
2022/10/22 05:14:18;;;;;;;16.27;11.15;;;;;;;;;;5071261;28;20054;-67
2022/10/22 05:16:46;;;;;;;17.83;11.20;;;;;;;;;;5069159;28;20072;-67
2022/10/22 05:19:18;;;;;;;20.25;11.27;;;;;;;;;;5069374;28;20052;-67
2022/10/22 05:21:44;;;;;;;23.00;10.93;;;;;;;;;;5071009;28;20036;-67
2022/10/22 05:24:10;;;;;;;18.05;10.18;;;;;;;;;;5069540;28;20048;-67
2022/10/22 05:26:36;;;;;;;21.27;11.15;;;;;;;;;;5071134;28;20045;-67
2022/10/22 05:29:02;;;;;;;19.65;11.00;;;;;;;;;;5070513;28;20044;-67
2022/10/22 05:31:28;;;;;;;18.67;10.52;;;;;;;;;;5070468;28;20040;-67
2022/10/22 05:33:55;;;;;;;17.30;10.68;;;;;;;;;;5069507;28;20048;-67
2022/10/22 05:36:21;;;;;;;19.52;10.63;;;;;;;;;;5070780;28;20582;-67
2022/10/22 05:38:48;;;;;;;21.75;10.93;;;;;;;;;;5069295;28;20048;-67
2022/10/22 05:41:18;;;;;;;18.80;10.63;;;;;;;;;;5070554;28;20044;-67
2022/10/22 05:43:44;;;;;;;22.58;11.63;;;;;;;;;;5071056;28;20037;-67
2022/10/22 05:46:18;;;;;;;18.23;10.32;;;;;;;;;;5069180;28;20072;-67
2022/10/22 05:48:44;;;;;;;20.13;11.50;;;;;;;;;;5070910;28;20037;-67
2022/10/22 05:51:11;;;;;;;17.88;11.70;;;;;;;;;;5070713;28;20517;-67
2022/10/22 05:53:39;;;;;;;19.50;11.50;;;;;;;;;;5070340;28;20041;-67
2022/10/22 05:56:07;;;;;;;22.85;11.68;;;;;;;;;;5070896;28;20045;-67
2022/10/22 05:58:33;;;;;;;22.38;10.13;;;;;;;;;;5069428;28;20051;-67
2022/10/22 06:01:06;;;;;;;21.63;11.10;;;;;;;;;;5070503;28;20705;-67
2022/10/22 06:03:32;;;;;;;17.98;11.35;;;;;;;;;;5070497;28;20033;-67
2022/10/22 06:06:04;;;;;;;15.98;10.50;;;;;;;;;;5070374;28;20059;-67
2022/10/22 06:08:30;;;;;;;15.38;10.20;;;;;;;;;;5070175;28;20518;-67
2022/10/22 06:10:56;;;;;;;21.90;10.35;;;;;;;;;;5069128;28;20048;-67
2022/10/22 06:13:23;;;;;;;18.27;9.95;;;;;;;;;;5070623;28;20051;-67
2022/10/22 06:15:51;;;;;;;21.45;10.13;;;;;;;;;;5070122;28;20051;-67
2022/10/22 06:18:17;;;;;;;16.50;10.30;;;;;;;;;;5070536;28;20094;-67
2022/10/22 06:20:44;;;;;;;23.27;9.60;;;;;;;;;;5069887;28;20048;-67
2022/10/22 06:23:10;;;;;;;20.13;10.55;;;;;;;;;;5070157;28;20833;-67
2022/10/22 06:25:36;;;;;;;15.70;10.55;;;;;;;;;;5069138;28;20048;-67
2022/10/22 06:28:02;;;;;;;18.17;9.70;;;;;;;;;;5069087;28;20045;-67
2022/10/22 06:30:28;;;;;;;22.30;10.20;;;;;;;;;;5069949;28;20042;-67
2022/10/22 06:32:55;;;;;;;19.50;9.95;;;;;;;;;;5069057;28;20048;-67
2022/10/22 06:35:21;;;;;;;16.73;9.45;;;;;;;;;;5070332;28;20044;-67
2022/10/22 06:37:47;;;;;;;26.25;9.57;;;;;;;;;;5069984;28;20483;-67
2022/10/22 06:40:15;;;;;;;22.00;10.50;;;;;;;;;;5069999;28;20047;-67
2022/10/22 06:42:41;;;;;;;15.23;9.05;;;;;;;;;;5070314;28;20471;-67
2022/10/22 06:45:07;;;;;;;19.17;9.18;;;;;;;;;;5069587;28;20032;-67
2022/10/22 06:47:33;;;;;;;17.15;10.00;;;;;;;;;;5070294;28;20086;-67
2022/10/22 06:49:59;;;;;;;15.73;9.25;;;;;;;;;;5070015;28;20740;-67
2022/10/22 06:52:25;;;;;;;14.70;8.55;;;;;;;;;;5069876;28;20041;-67
2022/10/22 06:54:51;;;;;;;15.27;9.43;;;;;;;;;;5070127;28;20037;-67
2022/10/22 06:57:17;;;;;;;19.67;8.63;;;;;;;;;;5070140;28;20513;-67
2022/10/22 06:59:43;;;;;;;18.65;9.27;;;;;;;;;;5069730;28;20044;-67
2022/10/22 07:02:09;;;;;;;17.77;8.23;;;;;;;;;;5068470;28;20051;-67
2022/10/22 07:04:36;;;;;;;16.23;8.70;;;;;;;;;;5071153;28;20149;-67
2022/10/22 07:07:02;;;;;;;19.02;8.57;;;;;;;;;;5071763;28;20502;-67
2022/10/22 07:09:28;;;;;;;16.98;8.75;;;;;;;;;;5073625;28;20044;-67
2022/10/22 07:11:54;;;;;;;14.82;8.55;;;;;;;;;;5073293;28;20519;-67
2022/10/22 07:14:20;;;;;;;14.88;8.15;;;;;;;;;;5073053;28;20094;-67
2022/10/22 07:16:46;;;;;;;14.88;8.10;;;;;;;;;;5073643;28;20487;-67
2022/10/22 07:19:12;;;;;;;18.13;8.10;;;;;;;;;;5073320;28;20040;-67
2022/10/22 07:21:38;;;;;;;16.85;8.65;;;;;;;;;;5073176;28;20120;-67
2022/10/22 07:24:04;;;;;;;15.52;7.75;;;;;;;;;;5073542;28;20037;-67
2022/10/22 07:26:31;;;;;;;14.80;8.50;;;;;;;;;;5071967;28;20447;-67
2022/10/22 07:28:58;;;;;;;12.40;7.50;;;;;;;;;;5072735;28;20045;-67
2022/10/22 07:31:24;;;;;;;20.05;7.78;;;;;;;;;;5073251;28;20497;-67
2022/10/22 07:33:50;;;;;;;14.73;7.97;;;;;;;;;;5073363;28;20052;-67
2022/10/22 07:36:16;;;;;;;11.52;8.02;;;;;;;;;;5072857;28;20086;-67
2022/10/22 07:38:44;;;;;;;13.20;7.43;;;;;;;;;;5072995;28;20090;-67
2022/10/22 07:41:10;;;;;;;16.10;7.03;;;;;;;;;;5071818;28;20737;-67
2022/10/22 07:43:36;;;;;;;15.35;7.25;;;;;;;;;;5072799;28;20129;-67
2022/10/22 07:46:02;;;;;;;15.68;6.78;;;;;;;;;;5071766;28;20424;-67
2022/10/22 07:48:28;;;;;;;16.35;7.88;;;;;;;;;;5072811;28;20040;-67
2022/10/22 07:50:57;;;;;;;20.95;7.47;;;;;;;;;;5073146;28;20127;-67
2022/10/22 07:53:23;;;;;;;15.75;6.75;;;;;;;;;;5072720;28;20040;-67
2022/10/22 07:55:49;;;;;;;14.55;7.22;;;;;;;;;;5072777;28;20051;-67
2022/10/22 07:58:19;;;;;;;14.48;6.43;;;;;;;;;;5072745;28;20044;-67
2022/10/22 08:00:45;;;;;;;14.27;6.80;;;;;;;;;;5072278;28;20044;-67
2022/10/22 08:03:12;;;;;;;16.20;7.53;;;;;;;;;;5072837;28;20094;-67
2022/10/22 08:05:38;;;;;;;15.85;6.95;;;;;;;;;;5071055;28;20029;-67
2022/10/22 08:08:04;;;;;;;14.40;6.95;;;;;;;;;;5072262;28;20102;-67
2022/10/22 08:10:31;;;;;;;16.60;6.47;;;;;;;;;;5072346;28;20036;-67
2022/10/22 08:12:57;;;;;;;15.85;7.00;;;;;;;;;;5070915;28;20056;-67
2022/10/22 08:15:24;;;;;;;20.50;7.60;;;;;;;;;;5071363;28;20396;-67
2022/10/22 08:17:50;;;;;;;17.23;6.53;;;;;;;;;;5070332;28;20072;-67
2022/10/22 08:20:17;;;;;;;13.02;6.38;;;;;;;;;;5072149;28;20047;-67
2022/10/22 08:22:43;;;;;;;19.38;6.55;;;;;;;;;;5072090;28;20082;-67
2022/10/22 08:25:09;;;;;;;19.23;6.85;;;;;;;;;;5071959;28;20044;-67
2022/10/22 08:27:35;;;;;;;15.95;6.65;;;;;;;;;;5071968;28;20036;-67
2022/10/22 08:30:02;;;;;;;13.85;6.38;;;;;;;;;;5070092;28;20036;-67
2022/10/22 08:32:28;;;;;;;18.58;6.97;;;;;;;;;;5070507;28;20429;-67
2022/10/22 08:34:54;;;;;;;19.20;6.43;;;;;;;;;;5072028;28;20123;-67
2022/10/22 08:37:21;;;;;;;16.23;5.95;;;;;;;;;;5071626;28;20090;-67
2022/10/22 08:39:47;;;;;;;10.35;6.15;;;;;;;;;;5072031;28;20037;-67
2022/10/22 08:42:31;;;;;;;13.90;6.25;;;;;;;;;;5070459;28;20101;-67
2022/10/22 08:45:00;;;;;;;19.98;6.43;;;;;;;;;;5071602;28;20127;-67
2022/10/22 08:47:45;;;;;;;19.10;5.65;;;;;;;;;;5071822;28;20506;-67
2022/10/22 08:50:14;;;;;;;12.88;5.53;;;;;;;;;;5071312;28;20451;-67
2022/10/22 08:52:41;;;;;;;12.07;5.57;;;;;;;;;;5071737;28;20048;-67
2022/10/22 08:55:12;;;;;;;12.40;5.68;;;;;;;;;;5070107;28;20029;-67
2022/10/22 08:57:48;;;;;;;13.57;5.72;;;;;;;;;;5071020;28;20040;-67
2022/10/22 09:00:14;;;;;;;14.88;5.32;;;;;;;;;;5071549;28;20048;-67
2022/10/22 09:02:52;;;;;;;16.55;5.90;;;;;;;;;;5071295;28;20154;-67
2022/10/22 09:05:24;;;;;;;14.43;5.28;;;;;;;;;;5071074;28;20048;-67
2022/10/22 09:07:51;;;;;;;13.90;4.55;;;;;;;;;;5071457;28;20049;-67
2022/10/22 09:10:19;;;;;;;11.52;4.53;;;;;;;;;;5069718;28;20040;-67
2022/10/22 09:12:46;;;;;;;15.63;4.95;;;;;;;;;;5070504;28;20429;-67
2022/10/22 09:15:14;;;;;;;12.82;4.35;;;;;;;;;;5071187;28;20214;-67
2022/10/22 09:17:59;;;;;;;12.43;4.68;;;;;;;;;;5071285;28;20094;-67
2022/10/22 09:20:48;;;;;;;11.85;4.25;;;;;;;;;;5070797;28;20063;-67
2022/10/22 09:23:17;;;;;;;16.48;4.60;;;;;;;;;;5067806;28;20045;-67
2022/10/22 09:25:43;;;;;;;14.00;4.28;;;;;;;;;;5069738;28;20051;-67
2022/10/22 09:28:09;;;;;;;15.25;4.32;;;;;;;;;;5070522;28;20394;-67
2022/10/22 09:30:37;;;;;;;15.77;4.20;;;;;;;;;;5071039;28;20036;-67
2022/10/22 09:33:11;;;;;;;16.15;4.72;;;;;;;;;;5070928;28;20115;-67
2022/10/22 09:35:47;;;;;;;10.52;4.50;;;;;;;;;;5070567;28;20090;-67
2022/10/22 09:38:14;;;;;;;8.02;3.58;;;;;;;;;;5070905;28;20075;-67
2022/10/22 09:40:48;;;;;;;16.40;3.97;;;;;;;;;;5070566;28;20089;-67
2022/10/22 09:43:14;;;;;;;14.18;4.00;;;;;;;;;;5070401;28;20076;-67
2022/10/22 09:45:41;;;;;;;11.55;3.80;;;;;;;;;;5069493;28;20475;-67
2022/10/22 09:48:14;;;;;;;15.57;3.70;;;;;;;;;;5070700;28;20036;-67
2022/10/22 09:50:43;;;;;;;9.70;4.50;;;;;;;;;;5070108;28;20124;-67
2022/10/22 09:53:22;;;;;;;9.77;4.22;;;;;;;;;;5070897;28;20048;-67
2022/10/22 09:55:53;;;;;;;15.02;4.55;;;;;;;;;;5069090;28;20037;-67
2022/10/22 09:58:19;;;;;;;17.00;4.35;;;;;;;;;;5070418;28;20055;-67
2022/10/22 10:00:51;;;;;;;19.80;4.80;;;;;;;;;;5068920;28;20450;-67
2022/10/22 10:03:27;;;;;;;11.35;4.50;;;;;;;;;;5069433;28;20520;-67
2022/10/22 10:05:55;;;;;;;12.63;4.47;;;;;;;;;;5070120;28;20378;-67
2022/10/22 10:08:21;;;;;;;12.85;4.30;;;;;;;;;;5070404;28;20116;-67
2022/10/22 10:10:49;;;;;;;12.45;4.30;;;;;;;;;;5070617;28;20040;-67
2022/10/22 10:13:27;;;;;;;11.15;4.53;;;;;;;;;;5069883;28;20056;-67
2022/10/22 10:16:02;;;;;;;15.50;5.40;;;;;;;;;;5070470;28;20102;-67
2022/10/22 10:18:47;;;;;;;9.55;4.15;;;;;;;;;;5070581;28;20037;-67
2022/10/22 10:21:16;;;;;;;13.10;4.47;;;;;;;;;;5068541;28;20056;-67
2022/10/22 10:23:55;;;;;;;13.35;4.55;;;;;;;;;;5068997;28;20037;-67
2022/10/22 10:26:31;;;;;;;15.20;5.25;;;;;;;;;;5070262;28;20043;-67
2022/10/22 10:29:13;;;;;;;12.80;5.15;;;;;;;;;;5070473;28;20386;-67
2022/10/22 10:31:39;;;;;;;16.38;5.40;;;;;;;;;;5069193;28;20045;-67
2022/10/22 10:34:05;;;;;;;13.68;4.57;;;;;;;;;;5068558;28;20402;-67
2022/10/22 10:36:31;;;;;;;13.50;5.25;;;;;;;;;;5070366;28;20033;-67
2022/10/22 10:39:02;;;;;;;10.68;4.80;;;;;;;;;;5070556;28;20391;-67
2022/10/22 10:41:28;;;;;;;18.13;5.20;;;;;;;;;;5073777;28;20048;-67
2022/10/22 10:44:02;;;;;;;18.73;5.10;;;;;;;;;;5074092;28;20029;-67
2022/10/22 10:46:43;;;;;;;15.93;4.88;;;;;;;;;;5074250;28;20042;-67
2022/10/22 10:49:11;;;;;;;16.50;5.07;;;;;;;;;;5072103;28;20054;-67
2022/10/22 10:51:41;;;;;;;12.60;5.05;;;;;;;;;;5074080;28;20055;-68
2022/10/22 10:54:13;;;;;;;12.68;5.25;;;;;;;;;;5073783;28;20059;-68
2022/10/22 10:56:45;;;;;;;16.35;5.13;;;;;;;;;;5073465;28;20179;-68
2022/10/22 10:59:11;;;;;;;;;;;;;;;;;;5072909;28;20110;-68
2022/10/22 11:01:43;;;;;;;14.20;5.65;;;;;;;;;;5073747;28;19920;-68
2022/10/22 11:04:28;;;;;;;15.30;6.22;;;;;;;;;;5073442;28;20033;-68
2022/10/22 11:06:56;;;;;;;12.18;6.07;;;;;;;;;;5073722;28;20044;-68
2022/10/22 11:09:22;;;;;;;16.30;6.35;;;;;;;;;;5072096;28;20032;-68
2022/10/22 11:11:51;;;;;;;14.90;6.32;;;;;;;;;;5073204;28;20451;-68
2022/10/22 11:14:19;;;;;;;16.27;6.82;;;;;;;;;;5073342;28;20090;-68
2022/10/22 11:16:52;;;;;;;15.45;7.18;;;;;;;;;;5073689;28;20030;-68
2022/10/22 11:19:36;;;;;;;14.82;7.05;;;;;;;;;;5072930;28;20063;-68
2022/10/22 11:22:14;;;;;;;18.95;6.70;;;;;;;;;;5071928;28;20048;-68
2022/10/22 11:24:54;;;;;;;16.63;7.40;;;;;;;;;;5073474;28;20086;-68
2022/10/22 11:27:20;;;;;;;17.05;6.93;;;;;;;;;;5072863;28;20544;-68
2022/10/22 11:29:48;;;;;;;14.88;7.20;;;;;;;;;;5073408;28;20041;-68
2022/10/22 11:32:17;;;;;;;14.75;7.00;;;;;;;;;;5073310;28;20067;-68
2022/10/22 11:34:46;;;;;;;10.20;6.28;;;;;;;;;;5072974;28;20119;-68
2022/10/22 11:37:13;;;;;;;13.77;6.65;;;;;;;;;;5073248;28;20685;-68
2022/10/22 11:39:39;;;;;;;17.35;6.18;;;;;;;;;;5071762;28;20052;-68
2022/10/22 11:42:08;;;;;;;16.40;6.47;;;;;;;;;;5072742;28;20178;-68
2022/10/22 11:44:48;;;;;;;13.95;5.97;;;;;;;;;;5071543;28;20121;-68
2022/10/22 11:47:24;;;;;;;17.42;6.18;;;;;;;;;;5073173;28;20041;-68
2022/10/22 11:50:15;;;;;;;16.08;6.20;;;;;;;;;;5072115;28;20117;-68
2022/10/22 11:52:48;;;;;;;17.65;6.00;;;;;;;;;;5071756;28;20443;-68
2022/10/22 11:55:31;;;;;;;12.07;5.35;;;;;;;;;;5072682;28;20041;-68
2022/10/22 11:57:59;;;;;;;12.02;5.90;;;;;;;;;;5071487;28;20059;-68
2022/10/22 12:00:45;;;;;;;11.10;5.88;;;;;;;;;;5072836;28;20032;-68
2022/10/22 12:03:16;;;;;;;11.65;5.82;;;;;;;;;;5072441;28;20483;-68
2022/10/22 12:05:43;;;;;;;16.55;6.30;;;;;;;;;;5071299;28;20467;-68
2022/10/22 12:08:09;;;;;;;12.43;5.32;;;;;;;;;;5071208;28;20139;-67
2022/10/22 12:10:36;;;;;;;17.38;5.78;;;;;;;;;;5072096;28;20238;-67
2022/10/22 12:13:10;;;;;;;13.02;5.20;;;;;;;;;;5070782;28;20060;-67
2022/10/22 12:15:45;;;;;;;16.48;5.53;;;;;;;;;;5071237;28;20483;-67
2022/10/22 12:18:12;;;;;;;9.48;5.10;;;;;;;;;;5072109;28;20102;-67
2022/10/22 12:20:38;;;;;;;10.93;5.10;;;;;;;;;;5072406;28;20745;-67
2022/10/22 12:23:04;;;;;;;13.23;5.00;;;;;;;;;;5071208;28;20051;-67
2022/10/22 12:25:31;;;;;;;12.45;4.72;;;;;;;;;;5070410;28;20044;-67
2022/10/22 12:28:00;;;;;;;14.10;5.25;;;;;;;;;;5070785;28;20063;-67
2022/10/22 12:30:27;;;;;;;12.50;5.30;;;;;;;;;;5070726;28;20040;-67
2022/10/22 12:32:55;;;;;;;14.30;5.80;;;;;;;;;;5070225;28;20116;-67
2022/10/22 12:35:23;;;;;;;13.15;5.80;;;;;;;;;;5072182;28;20079;-67
2022/10/22 12:37:54;;;;;;;10.48;5.82;;;;;;;;;;5072263;28;20433;-67
2022/10/22 12:40:20;;;;;;;14.63;6.53;;;;;;;;;;5070245;28;20875;-67
2022/10/22 12:42:50;;;;;;;18.88;6.70;;;;;;;;;;5071891;28;20041;-67
2022/10/22 12:45:16;;;;;;;12.68;6.00;;;;;;;;;;5072033;28;20036;-67
2022/10/22 12:47:49;;;;;;;15.68;7.18;;;;;;;;;;5071536;28;20055;-67
2022/10/22 12:50:20;;;;;;;17.65;7.47;;;;;;;;;;5070209;28;20032;-67
2022/10/22 12:52:47;;;;;;;19.23;7.55;;;;;;;;;;5070517;28;20044;-67
2022/10/22 12:55:15;;;;;;;17.92;7.85;;;;;;;;;;5071249;28;20546;-67
2022/10/22 12:57:41;;;;;;;14.15;7.28;;;;;;;;;;5070383;28;20128;-67
2022/10/22 13:00:19;;;;;;;11.68;6.32;;;;;;;;;;5071507;28;20036;-67
2022/10/22 13:02:45;;;;;;;17.92;7.18;;;;;;;;;;5070532;28;20037;-67
2022/10/22 13:05:14;;;;;;;12.95;6.78;;;;;;;;;;5071504;28;20094;-67
2022/10/22 13:07:42;;;;;;;14.60;6.90;;;;;;;;;;5050213;28;20086;-67
2022/10/22 13:10:17;;;;;;;11.40;6.57;;;;;;;;;;5050995;28;20048;-67
2022/10/22 13:12:48;;;;;;;11.68;4.82;;;;;;;;;;5049648;28;20459;-67
2022/10/22 13:15:18;;;;;;;9.32;3.67;;;;;;;;;;5049759;28;20132;-68
2022/10/22 13:17:44;;;;;;;15.90;3.65;;;;;;;;;;5050652;28;20048;-68
2022/10/22 13:20:16;;;;;;;6.30;2.90;;;;;;;;;;5051000;28;20059;-68
2022/10/22 13:23:02;;;;;;;7.32;3.10;;;;;;;;;;5051251;28;20041;-68
2022/10/22 13:25:31;;;;;;;7.13;2.40;;;;;;;;;;5052845;28;20108;-68
2022/10/22 13:27:59;;;;;;;9.75;2.53;;;;;;;;;;5071154;28;20039;-68
2022/10/22 13:30:29;;;;;;;6.97;2.55;;;;;;;;;;5069392;28;20051;-68
2022/10/22 13:33:03;;;;;;;7.22;1.98;;;;;;;;;;5070332;28;20433;-68
2022/10/22 13:35:31;;;;;;;7.55;2.33;;;;;;;;;;5069473;28;20049;-68
2022/10/22 13:37:58;;;;;;;8.63;2.20;;;;;;;;;;5071022;28;20036;-68
2022/10/22 13:40:24;;;;;;;5.88;2.10;;;;;;;;;;5070615;28;20394;-68
2022/10/22 13:42:50;;;;;;;5.35;2.10;;;;;;;;;;5070674;28;20052;-68
2022/10/22 13:45:16;;;;;;;10.10;2.15;;;;;;;;;;5070896;28;20039;-68
2022/10/22 13:47:44;;;;;;;9.15;1.85;;;;;;;;;;5070473;28;20487;-68
2022/10/22 13:50:12;;;;;;;6.32;1.83;;;;;;;;;;5069166;28;20356;-65
2022/10/22 13:52:44;;;;;;;5.70;1.40;;;;;;;;;;5070609;28;20044;-65
2022/10/22 13:55:14;;;;;;;8.27;1.67;;;;;;;;;;5070410;28;20044;-65
2022/10/22 13:57:40;;;;;;;4.10;1.20;;;;;;;;;;5069409;28;20139;-65
2022/10/22 14:00:08;;;;;;;5.57;1.50;;;;;;;;;;5069109;28;20121;-65
2022/10/22 14:02:34;;;;;;;8.80;1.77;;;;;;;;;;5070379;28;20032;-65
2022/10/22 14:05:03;;;;;;;7.95;1.75;;;;;;;;;;5070801;28;20475;-65
2022/10/22 14:07:29;;;;;;;7.03;1.50;;;;;;;;;;5069433;28;20121;-65
2022/10/22 14:09:55;;;;;;;6.18;1.60;;;;;;;;;;5069964;28;20033;-65
2022/10/22 14:12:21;;;;;;;5.72;1.40;;;;;;;;;;5070023;28;20238;-65
2022/10/22 14:14:47;;;;;;;7.05;1.60;;;;;;;;;;5073627;28;20199;-65
2022/10/22 14:17:16;;;;;;;7.88;1.63;;;;;;;;;;5074385;28;20039;-65
2022/10/22 14:19:43;;;;;;;9.20;1.60;;;;;;;;;;5074657;28;20098;-65
2022/10/22 14:22:19;;;;;;;6.90;1.50;;;;;;;;;;5073044;28;20037;-65
2022/10/22 14:24:46;;;;;;;5.55;1.80;;;;;;;;;;5073970;28;20438;-65
2022/10/22 14:27:13;;;;;;;9.27;1.80;;;;;;;;;;5074477;28;20163;-65
2022/10/22 14:29:39;;;;;;;7.65;1.55;;;;;;;;;;5074237;28;20537;-65
2022/10/22 14:32:12;;;;;;;7.10;1.45;;;;;;;;;;5072438;28;20039;-65
2022/10/22 14:34:39;;;;;;;11.23;2.15;;;;;;;;;;5074411;28;20037;-65
2022/10/22 14:37:14;;;;;;;5.00;1.55;;;;;;;;;;5073126;28;20080;-65